イカルイト の空港の天気 - METARとTAF

イカルイト空港 ( CYFB / YFB ) - カナダ ヌナブト準州イカルイト
飛行場実況気象(Metar)
観測時間06/24 05:00 EDT (06/24 09:00 UTC)
風向・風速北西 4m/s
視程10km以上
天気現象
少しの雲 雲底高度 1650m
全天の4割程度の雲 雲底高度 2070m
気温7℃
湿度81%
気圧1015hPa
METARCYFB 240900Z 32007KT 30SM FEW054 SCT068 07/04 A2996 RMK SC2AC2 SLP150
過去の天気等 Google飛行場航空写真 Wunderground天気予報

過去48時間のMETAR

飛行場予報(TAF)
発表時間: 6/24 01:38 EDT (6/24 05:38 UTC)
予報対象時間: 24日2時 EDT ~ 25日2時 EDT
風向・風速北西 5m/s
視程10km以上
少しの雲 雲底高度 1220m
全天の8割程度の雲 雲底高度 1830m
24日11時 EDT から
風向・風速北北西 8m/s
視程10km以上
少しの雲 雲底高度 1830m
24日20時 EDT ~ 24日22時 EDT に徐々に
風向・風速北北西 5m/s
TAF CYFB 240538Z 2406/2506 32010KT P6SM FEW040 BKN060
FM241500 33015KT P6SM FEW060
BECMG 2500/2502 33010KT RMK NXT FCST BY 241200Z